SCAR55 CYBG-CYYR
Flight info
| Callsign | SCAR55 |
|---|---|
| Flight time | 1h 19m |
| Altitude | 29000 |
| Route | YBC YZV ALKOB |
| Aircraft | F35/M-SDFIRY/LB1 |
Departure
| Time | 2026-04-20 23:05 |
|---|---|
| Airport | Saguenay-Bagotville Airport (CYBG) |
Arrival
| Time | 2026-04-21 00:25 |
|---|---|
| Airport | Goose Bay Airport (CYYR) |
| Time | Latitude | Longitude | Altitude | Speed | Heading |
|---|---|---|---|---|---|
| 2026-04-20 23:02 | 48.33329 | -70.98458 | 519 ft | 0 kts | 180° |
| 2026-04-20 23:03 | 48.33305 | -70.98453 | 519 ft | 8 kts | 157° |
| 2026-04-20 23:03 | 48.33288 | -70.98380 | 518 ft | 10 kts | 91° |
| 2026-04-20 23:03 | 48.33287 | -70.98225 | 518 ft | 16 kts | 91° |
| 2026-04-20 23:04 | 48.33285 | -70.98047 | 517 ft | 18 kts | 91° |
| 2026-04-20 23:04 | 48.33282 | -70.97856 | 517 ft | 19 kts | 91° |
| 2026-04-20 23:04 | 48.33257 | -70.97671 | 517 ft | 19 kts | 131° |
| 2026-04-20 23:04 | 48.33179 | -70.97646 | 517 ft | 12 kts | 244° |
| 2026-04-20 23:05 | 48.33176 | -70.97821 | 516 ft | 48 kts | 271° |
| 2026-04-20 23:05 | 48.33192 | -70.98937 | 536 ft | 151 kts | 273° |
| 2026-04-20 23:05 | 48.33226 | -71.00877 | 838 ft | 223 kts | 273° |
| 2026-04-20 23:05 | 48.33458 | -71.03168 | 1295 ft | 246 kts | 297° |
| 2026-04-20 23:06 | 48.34566 | -71.04859 | 2137 ft | 232 kts | 336° |
| 2026-04-20 23:06 | 48.36119 | -71.05045 | 2961 ft | 238 kts | 15° |
| 2026-04-20 23:06 | 48.37473 | -71.03621 | 3814 ft | 249 kts | 54° |
| 2026-04-20 23:06 | 48.38257 | -71.01239 | 4649 ft | 257 kts | 66° |
| 2026-04-20 23:07 | 48.38937 | -70.98735 | 5471 ft | 261 kts | 65° |
| 2026-04-20 23:07 | 48.39647 | -70.96212 | 6295 ft | 262 kts | 63° |
| 2026-04-20 23:07 | 48.40390 | -70.93671 | 7102 ft | 265 kts | 63° |
| 2026-04-20 23:07 | 48.41128 | -70.91099 | 7908 ft | 271 kts | 63° |
| 2026-04-20 23:08 | 48.41861 | -70.88491 | 8737 ft | 273 kts | 63° |
| 2026-04-20 23:08 | 48.42599 | -70.85882 | 9571 ft | 275 kts | 63° |
| 2026-04-20 23:08 | 48.43360 | -70.83216 | 10398 ft | 280 kts | 63° |
| 2026-04-20 23:08 | 48.44125 | -70.80517 | 11177 ft | 281 kts | 63° |
| 2026-04-20 23:09 | 48.44897 | -70.77780 | 11979 ft | 286 kts | 63° |
| 2026-04-20 23:09 | 48.45677 | -70.75021 | 12803 ft | 288 kts | 63° |
| 2026-04-20 23:09 | 48.46471 | -70.72216 | 13661 ft | 294 kts | 62° |
| 2026-04-20 23:09 | 48.47311 | -70.69254 | 14486 ft | 309 kts | 63° |
| 2026-04-20 23:10 | 48.48139 | -70.66302 | 15249 ft | 315 kts | 63° |
| 2026-04-20 23:10 | 48.48999 | -70.63252 | 16053 ft | 318 kts | 64° |
| 2026-04-20 23:10 | 48.49872 | -70.60147 | 16866 ft | 326 kts | 64° |
| 2026-04-20 23:10 | 48.50755 | -70.56990 | 17696 ft | 328 kts | 65° |
| 2026-04-20 23:11 | 48.51653 | -70.53784 | 18564 ft | 336 kts | 65° |
| 2026-04-20 23:11 | 48.52567 | -70.50519 | 19314 ft | 339 kts | 65° |
| 2026-04-20 23:11 | 48.53482 | -70.47238 | 20074 ft | 342 kts | 65° |
| 2026-04-20 23:11 | 48.54414 | -70.43902 | 20864 ft | 347 kts | 65° |
| 2026-04-20 23:12 | 48.55342 | -70.40576 | 21645 ft | 349 kts | 65° |
| 2026-04-20 23:12 | 48.56287 | -70.37176 | 22482 ft | 354 kts | 65° |
| 2026-04-20 23:12 | 48.57247 | -70.33723 | 23346 ft | 360 kts | 65° |
| 2026-04-20 23:12 | 48.58219 | -70.30220 | 24130 ft | 363 kts | 65° |
| 2026-04-20 23:13 | 48.59202 | -70.26676 | 24853 ft | 370 kts | 65° |
| 2026-04-20 23:13 | 48.60204 | -70.23057 | 25592 ft | 376 kts | 65° |
| 2026-04-20 23:13 | 48.61216 | -70.19388 | 26353 ft | 380 kts | 66° |
| 2026-04-20 23:13 | 48.62244 | -70.15664 | 27132 ft | 388 kts | 66° |
| 2026-04-20 23:14 | 48.63276 | -70.11916 | 27937 ft | 394 kts | 66° |
| 2026-04-20 23:14 | 48.64335 | -70.08061 | 28673 ft | 404 kts | 66° |
| 2026-04-20 23:14 | 48.65427 | -70.04092 | 29011 ft | 412 kts | 67° |
| 2026-04-20 23:14 | 48.66520 | -70.00091 | 29146 ft | 410 kts | 67° |
| 2026-04-20 23:15 | 48.68696 | -69.92134 | 29213 ft | 410 kts | 67° |
| 2026-04-20 23:15 | 48.70865 | -69.84164 | 29224 ft | 408 kts | 67° |
| 2026-04-20 23:16 | 48.73013 | -69.76256 | 29224 ft | 410 kts | 67° |
| 2026-04-20 23:16 | 48.75169 | -69.68284 | 29226 ft | 409 kts | 68° |
| 2026-04-20 23:17 | 48.77323 | -69.60295 | 29224 ft | 409 kts | 68° |
| 2026-04-20 23:17 | 48.79467 | -69.52318 | 29227 ft | 408 kts | 68° |
| 2026-04-20 23:18 | 48.80477 | -69.48551 | 29199 ft | 363 kts | 68° |
| 2026-04-20 23:18 | 48.81388 | -69.45166 | 29188 ft | 350 kts | 69° |
| 2026-04-20 23:18 | 48.83231 | -69.38232 | 29196 ft | 354 kts | 69° |
| 2026-04-20 23:19 | 48.85077 | -69.31311 | 29212 ft | 355 kts | 69° |
| 2026-04-20 23:19 | 48.86920 | -69.24367 | 29219 ft | 353 kts | 69° |
| 2026-04-20 23:20 | 48.88757 | -69.17419 | 29228 ft | 356 kts | 69° |
| 2026-04-20 23:20 | 48.90578 | -69.10522 | 29225 ft | 353 kts | 69° |
| 2026-04-20 23:21 | 48.92408 | -69.03562 | 29228 ft | 355 kts | 69° |
| 2026-04-20 23:21 | 48.94233 | -68.96610 | 29234 ft | 355 kts | 69° |
| 2026-04-20 23:22 | 48.96060 | -68.89618 | 29215 ft | 355 kts | 69° |
| 2026-04-20 23:22 | 48.97888 | -68.82602 | 29231 ft | 360 kts | 70° |
| 2026-04-20 23:23 | 48.99721 | -68.75554 | 29229 ft | 359 kts | 70° |
| 2026-04-20 23:23 | 49.01554 | -68.68475 | 29225 ft | 358 kts | 70° |
| 2026-04-20 23:24 | 49.03378 | -68.61413 | 29225 ft | 359 kts | 70° |
| 2026-04-20 23:24 | 49.05187 | -68.54385 | 29222 ft | 357 kts | 70° |
| 2026-04-20 23:25 | 49.07004 | -68.47304 | 29223 ft | 359 kts | 70° |
| 2026-04-20 23:25 | 49.08816 | -68.40226 | 29228 ft | 358 kts | 70° |
| 2026-04-20 23:26 | 49.10625 | -68.33132 | 29231 ft | 359 kts | 70° |
| 2026-04-20 23:26 | 49.12430 | -68.26059 | 29224 ft | 364 kts | 69° |
| 2026-04-20 23:27 | 49.14993 | -68.19418 | 29233 ft | 363 kts | 53° |
| 2026-04-20 23:27 | 49.18405 | -68.13702 | 29234 ft | 366 kts | 46° |
| 2026-04-20 23:28 | 49.21733 | -68.07872 | 29228 ft | 364 kts | 48° |
| 2026-04-20 23:28 | 49.25110 | -68.02132 | 29222 ft | 367 kts | 49° |
| 2026-04-20 23:29 | 49.28473 | -67.96311 | 29221 ft | 365 kts | 48° |
| 2026-04-20 23:29 | 49.31849 | -67.90475 | 29218 ft | 365 kts | 49° |
| 2026-04-20 23:30 | 49.35192 | -67.84690 | 29216 ft | 366 kts | 49° |
| 2026-04-20 23:30 | 49.38558 | -67.78840 | 29218 ft | 365 kts | 49° |
| 2026-04-20 23:31 | 49.41920 | -67.72993 | 29218 ft | 366 kts | 49° |
| 2026-04-20 23:31 | 49.45280 | -67.67130 | 29214 ft | 364 kts | 49° |
| 2026-04-20 23:32 | 49.48614 | -67.61303 | 29218 ft | 366 kts | 49° |
| 2026-04-20 23:32 | 49.51967 | -67.55430 | 29211 ft | 365 kts | 49° |
| 2026-04-20 23:33 | 49.55319 | -67.49544 | 29210 ft | 366 kts | 49° |
| 2026-04-20 23:33 | 49.58665 | -67.43661 | 29172 ft | 366 kts | 50° |
| 2026-04-20 23:34 | 49.62077 | -67.37631 | 29205 ft | 373 kts | 50° |
| 2026-04-20 23:34 | 49.65460 | -67.31659 | 29202 ft | 374 kts | 50° |
| 2026-04-20 23:35 | 49.70563 | -67.22609 | 29196 ft | 373 kts | 50° |
| 2026-04-20 23:36 | 49.73963 | -67.16562 | 29193 ft | 371 kts | 50° |
| 2026-04-20 23:36 | 49.77333 | -67.10558 | 29198 ft | 373 kts | 51° |
| 2026-04-20 23:37 | 49.80724 | -67.04496 | 29192 ft | 371 kts | 51° |
| 2026-04-20 23:37 | 49.84112 | -66.98432 | 29194 ft | 373 kts | 51° |
| 2026-04-20 23:38 | 49.87493 | -66.92364 | 29190 ft | 372 kts | 51° |
| 2026-04-20 23:38 | 49.90853 | -66.86317 | 29185 ft | 372 kts | 51° |
| 2026-04-20 23:39 | 49.94344 | -66.80018 | 29216 ft | 433 kts | 51° |
| 2026-04-20 23:39 | 49.98278 | -66.72916 | 29224 ft | 433 kts | 51° |
| 2026-04-20 23:40 | 50.02190 | -66.65817 | 29198 ft | 431 kts | 51° |
| 2026-04-20 23:40 | 50.06093 | -66.58722 | 29187 ft | 432 kts | 51° |
| 2026-04-20 23:41 | 50.09963 | -66.51668 | 29184 ft | 431 kts | 51° |
| 2026-04-20 23:41 | 50.13879 | -66.44519 | 29156 ft | 439 kts | 53° |
| 2026-04-20 23:42 | 50.17833 | -66.37264 | 29175 ft | 437 kts | 52° |
| 2026-04-20 23:42 | 50.21745 | -66.29973 | 29183 ft | 438 kts | 54° |
| 2026-04-20 23:43 | 50.25836 | -66.22911 | 29183 ft | 440 kts | 50° |
| 2026-04-20 23:43 | 50.29872 | -66.15839 | 29171 ft | 441 kts | 50° |
| 2026-04-20 23:44 | 50.33990 | -66.08706 | 29178 ft | 440 kts | 51° |
| 2026-04-20 23:44 | 50.38093 | -66.01575 | 29177 ft | 442 kts | 51° |
| 2026-04-20 23:45 | 50.42189 | -65.94417 | 29173 ft | 441 kts | 51° |
| 2026-04-20 23:45 | 50.46261 | -65.87294 | 29169 ft | 441 kts | 51° |
| 2026-04-20 23:46 | 50.50347 | -65.80120 | 29169 ft | 442 kts | 52° |
| 2026-04-20 23:46 | 50.54435 | -65.72929 | 29166 ft | 440 kts | 52° |
| 2026-04-20 23:47 | 50.58514 | -65.65726 | 29157 ft | 441 kts | 52° |
| 2026-04-20 23:47 | 50.62555 | -65.58573 | 29153 ft | 441 kts | 52° |
| 2026-04-20 23:48 | 50.66633 | -65.51340 | 29154 ft | 443 kts | 52° |
| 2026-04-20 23:48 | 50.70716 | -65.44066 | 29158 ft | 441 kts | 52° |
| 2026-04-20 23:49 | 50.74793 | -65.36785 | 29152 ft | 443 kts | 52° |
| 2026-04-20 23:49 | 50.78861 | -65.29505 | 29140 ft | 442 kts | 52° |
| 2026-04-20 23:50 | 50.82929 | -65.22203 | 29146 ft | 442 kts | 53° |
| 2026-04-20 23:50 | 50.86959 | -65.14944 | 29144 ft | 442 kts | 53° |
| 2026-04-20 23:51 | 50.91015 | -65.07624 | 29139 ft | 441 kts | 53° |
| 2026-04-20 23:51 | 50.95063 | -65.00292 | 29143 ft | 443 kts | 53° |
| 2026-04-20 23:52 | 50.99109 | -64.92944 | 29145 ft | 441 kts | 53° |
| 2026-04-20 23:52 | 51.03127 | -64.85626 | 29129 ft | 444 kts | 53° |
| 2026-04-20 23:53 | 51.07174 | -64.78237 | 29153 ft | 443 kts | 53° |
| 2026-04-20 23:53 | 51.11217 | -64.70827 | 29147 ft | 444 kts | 53° |
| 2026-04-20 23:54 | 51.15246 | -64.63425 | 29146 ft | 444 kts | 53° |
| 2026-04-20 23:54 | 51.19251 | -64.56053 | 29133 ft | 443 kts | 54° |
| 2026-04-20 23:55 | 51.23292 | -64.48577 | 29148 ft | 443 kts | 54° |
| 2026-04-20 23:55 | 51.27486 | -64.40771 | 29169 ft | 515 kts | 53° |
| 2026-04-20 23:56 | 51.32122 | -64.32201 | 29130 ft | 514 kts | 55° |
| 2026-04-20 23:56 | 51.36766 | -64.23534 | 29119 ft | 512 kts | 55° |
| 2026-04-20 23:57 | 51.41382 | -64.14873 | 29129 ft | 513 kts | 55° |
| 2026-04-20 23:57 | 51.46005 | -64.06142 | 29118 ft | 513 kts | 57° |
| 2026-04-20 23:58 | 51.50727 | -63.97523 | 29110 ft | 515 kts | 54° |
| 2026-04-20 23:58 | 51.55428 | -63.88857 | 29095 ft | 516 kts | 54° |
| 2026-04-20 23:59 | 51.60162 | -63.80154 | 29098 ft | 515 kts | 55° |
| 2026-04-20 23:59 | 51.64863 | -63.71508 | 29095 ft | 517 kts | 55° |
| 2026-04-21 00:00 | 51.69582 | -63.62780 | 29092 ft | 516 kts | 55° |
| 2026-04-21 00:00 | 51.74307 | -63.54019 | 29075 ft | 523 kts | 56° |
| 2026-04-21 00:01 | 51.79071 | -63.45142 | 29084 ft | 521 kts | 56° |
| 2026-04-21 00:01 | 51.83824 | -63.36259 | 29076 ft | 521 kts | 56° |
| 2026-04-21 00:02 | 51.88532 | -63.27428 | 29080 ft | 523 kts | 56° |
| 2026-04-21 00:02 | 51.93282 | -63.18494 | 29067 ft | 528 kts | 57° |
| 2026-04-21 00:02 | 51.95689 | -63.13944 | 28483 ft | 540 kts | 57° |
| 2026-04-21 00:03 | 51.98123 | -63.09361 | 28025 ft | 533 kts | 58° |
| 2026-04-21 00:03 | 52.00542 | -63.04765 | 27761 ft | 536 kts | 58° |
| 2026-04-21 00:03 | 52.02959 | -63.00187 | 27508 ft | 534 kts | 58° |
| 2026-04-21 00:03 | 52.05377 | -62.95591 | 27256 ft | 536 kts | 58° |
| 2026-04-21 00:04 | 52.07793 | -62.90990 | 26999 ft | 534 kts | 58° |
| 2026-04-21 00:04 | 52.10209 | -62.86385 | 26708 ft | 538 kts | 58° |
| 2026-04-21 00:04 | 52.12605 | -62.81801 | 26461 ft | 537 kts | 58° |
| 2026-04-21 00:04 | 52.15023 | -62.77179 | 26216 ft | 538 kts | 57° |
| 2026-04-21 00:05 | 52.17524 | -62.72617 | 25968 ft | 535 kts | 60° |
| 2026-04-21 00:05 | 52.19713 | -62.67774 | 25732 ft | 529 kts | 65° |
| 2026-04-21 00:05 | 52.21765 | -62.62795 | 25495 ft | 528 kts | 66° |
| 2026-04-21 00:05 | 52.23954 | -62.57949 | 25261 ft | 535 kts | 60° |
| 2026-04-21 00:06 | 52.26258 | -62.53173 | 25026 ft | 533 kts | 63° |
| 2026-04-21 00:06 | 52.28445 | -62.48306 | 24759 ft | 532 kts | 63° |
| 2026-04-21 00:06 | 52.30697 | -62.43480 | 24519 ft | 535 kts | 62° |
| 2026-04-21 00:06 | 52.32932 | -62.38644 | 24295 ft | 532 kts | 63° |
| 2026-04-21 00:07 | 52.35151 | -62.33777 | 24063 ft | 534 kts | 63° |
| 2026-04-21 00:07 | 52.37388 | -62.28938 | 23835 ft | 533 kts | 63° |
| 2026-04-21 00:07 | 52.39611 | -62.24074 | 23600 ft | 534 kts | 63° |
| 2026-04-21 00:07 | 52.41800 | -62.19281 | 23338 ft | 532 kts | 63° |
| 2026-04-21 00:08 | 52.44023 | -62.14419 | 23042 ft | 533 kts | 63° |
| 2026-04-21 00:08 | 52.46237 | -62.09558 | 22762 ft | 532 kts | 63° |
| 2026-04-21 00:08 | 52.48451 | -62.04680 | 22498 ft | 533 kts | 63° |
| 2026-04-21 00:08 | 52.50659 | -61.99824 | 22124 ft | 530 kts | 63° |
| 2026-04-21 00:09 | 52.52863 | -61.94952 | 21869 ft | 532 kts | 63° |
| 2026-04-21 00:09 | 52.55064 | -61.90084 | 21610 ft | 530 kts | 63° |
| 2026-04-21 00:09 | 52.57261 | -61.85219 | 21351 ft | 532 kts | 63° |
| 2026-04-21 00:09 | 52.59457 | -61.80341 | 21097 ft | 530 kts | 63° |
| 2026-04-21 00:10 | 52.61623 | -61.75521 | 20847 ft | 531 kts | 63° |
| 2026-04-21 00:10 | 52.63815 | -61.70638 | 20596 ft | 530 kts | 63° |
| 2026-04-21 00:10 | 52.66004 | -61.65746 | 20347 ft | 531 kts | 63° |
| 2026-04-21 00:10 | 52.68195 | -61.60847 | 20096 ft | 530 kts | 63° |
| 2026-04-21 00:11 | 52.70380 | -61.55945 | 19848 ft | 530 kts | 63° |
| 2026-04-21 00:11 | 52.72562 | -61.51046 | 19609 ft | 531 kts | 63° |
| 2026-04-21 00:11 | 52.74745 | -61.46134 | 19367 ft | 529 kts | 63° |
| 2026-04-21 00:11 | 52.76921 | -61.41225 | 19138 ft | 531 kts | 63° |
| 2026-04-21 00:12 | 52.79098 | -61.36311 | 18873 ft | 532 kts | 63° |
| 2026-04-21 00:12 | 52.81280 | -61.31370 | 18639 ft | 530 kts | 63° |
| 2026-04-21 00:12 | 52.83427 | -61.26498 | 18402 ft | 532 kts | 63° |
| 2026-04-21 00:12 | 52.85604 | -61.21553 | 18141 ft | 531 kts | 63° |
| 2026-04-21 00:13 | 52.87775 | -61.16608 | 17865 ft | 530 kts | 62° |
| 2026-04-21 00:13 | 52.89940 | -61.11669 | 17541 ft | 531 kts | 62° |
| 2026-04-21 00:13 | 52.92097 | -61.06738 | 17116 ft | 528 kts | 62° |
| 2026-04-21 00:13 | 52.94247 | -61.01815 | 16723 ft | 526 kts | 61° |
| 2026-04-21 00:14 | 52.96387 | -60.96904 | 16322 ft | 527 kts | 60° |
| 2026-04-21 00:14 | 52.98533 | -60.91970 | 15943 ft | 525 kts | 60° |
| 2026-04-21 00:14 | 53.00669 | -60.87050 | 15497 ft | 527 kts | 60° |
| 2026-04-21 00:14 | 53.02825 | -60.82074 | 15137 ft | 529 kts | 59° |
| 2026-04-21 00:15 | 53.04951 | -60.77162 | 14782 ft | 529 kts | 59° |
| 2026-04-21 00:15 | 53.07100 | -60.72178 | 14419 ft | 530 kts | 59° |
| 2026-04-21 00:15 | 53.09242 | -60.67209 | 14071 ft | 530 kts | 58° |
| 2026-04-21 00:15 | 53.11382 | -60.62232 | 13707 ft | 528 kts | 58° |
| 2026-04-21 00:16 | 53.13513 | -60.57265 | 13271 ft | 531 kts | 58° |
| 2026-04-21 00:16 | 53.15654 | -60.52270 | 12879 ft | 529 kts | 58° |
| 2026-04-21 00:16 | 53.17773 | -60.47306 | 12476 ft | 525 kts | 58° |
| 2026-04-21 00:16 | 53.19883 | -60.42362 | 12082 ft | 521 kts | 57° |
| 2026-04-21 00:17 | 53.21952 | -60.37503 | 11276 ft | 491 kts | 57° |
| 2026-04-21 00:17 | 53.23814 | -60.33124 | 10443 ft | 449 kts | 57° |
| 2026-04-21 00:17 | 53.25553 | -60.29014 | 9569 ft | 419 kts | 56° |
| 2026-04-21 00:17 | 53.27188 | -60.25157 | 8647 ft | 396 kts | 56° |
| 2026-04-21 00:18 | 53.28735 | -60.21500 | 7751 ft | 377 kts | 55° |
| 2026-04-21 00:18 | 53.30213 | -60.17996 | 6877 ft | 361 kts | 54° |
| 2026-04-21 00:18 | 53.31632 | -60.14623 | 5992 ft | 348 kts | 54° |
| 2026-04-21 00:18 | 53.33009 | -60.11376 | 5084 ft | 338 kts | 53° |
| 2026-04-21 00:19 | 53.34446 | -60.08364 | 4182 ft | 325 kts | 39° |
| 2026-04-21 00:19 | 53.36385 | -60.06728 | 3495 ft | 302 kts | 7° |
| 2026-04-21 00:19 | 53.38303 | -60.06980 | 3244 ft | 265 kts | 334° |
| 2026-04-21 00:19 | 53.39685 | -60.08592 | 3272 ft | 225 kts | 316° |
| 2026-04-21 00:20 | 53.40754 | -60.10301 | 3106 ft | 201 kts | 309° |
| 2026-04-21 00:20 | 53.41295 | -60.12133 | 2592 ft | 160 kts | 284° |
| 2026-04-21 00:20 | 53.41501 | -60.13940 | 2128 ft | 158 kts | 278° |
| 2026-04-21 00:20 | 53.41511 | -60.15758 | 1973 ft | 159 kts | 262° |
| 2026-04-21 00:21 | 53.41225 | -60.17548 | 1924 ft | 159 kts | 252° |
| 2026-04-21 00:21 | 53.40788 | -60.19256 | 1904 ft | 160 kts | 248° |
| 2026-04-21 00:21 | 53.40283 | -60.20892 | 1900 ft | 162 kts | 243° |
| 2026-04-21 00:21 | 53.39655 | -60.22454 | 1902 ft | 162 kts | 237° |
| 2026-04-21 00:22 | 53.38978 | -60.23984 | 1879 ft | 163 kts | 239° |
| 2026-04-21 00:22 | 53.38331 | -60.25539 | 1780 ft | 163 kts | 239° |
| 2026-04-21 00:22 | 53.37684 | -60.27107 | 1658 ft | 165 kts | 240° |
| 2026-04-21 00:22 | 53.37025 | -60.28692 | 1517 ft | 167 kts | 239° |
| 2026-04-21 00:23 | 53.36358 | -60.30304 | 1376 ft | 170 kts | 239° |
| 2026-04-21 00:23 | 53.35680 | -60.31941 | 1206 ft | 173 kts | 239° |
| 2026-04-21 00:23 | 53.34995 | -60.33604 | 1013 ft | 173 kts | 239° |
| 2026-04-21 00:23 | 53.34318 | -60.35259 | 808 ft | 173 kts | 237° |
| 2026-04-21 00:24 | 53.33634 | -60.36939 | 655 ft | 175 kts | 238° |
| 2026-04-21 00:24 | 53.32946 | -60.38616 | 464 ft | 171 kts | 238° |
| 2026-04-21 00:24 | 53.32302 | -60.40197 | 242 ft | 161 kts | 238° |
| 2026-04-21 00:24 | 53.31732 | -60.41574 | 157 ft | 119 kts | 235° |
| 2026-04-21 00:25 | 53.31332 | -60.42540 | 157 ft | 86 kts | 236° |
| 2026-04-21 00:25 | 53.31033 | -60.43268 | 154 ft | 67 kts | 236° |
| 2026-04-21 00:25 | 53.30861 | -60.43611 | 157 ft | 17 kts | 186° |
| 2026-04-21 00:25 | 53.30756 | -60.43511 | 158 ft | 18 kts | 139° |
| 2026-04-21 00:26 | 53.30782 | -60.43334 | 158 ft | 21 kts | 53° |
| 2026-04-21 00:26 | 53.30903 | -60.43054 | 157 ft | 33 kts | 54° |
| 2026-04-21 00:26 | 53.30951 | -60.42798 | 157 ft | 11 kts | 156° |
| 2026-04-21 00:26 | 53.30926 | -60.42804 | 157 ft | 0 kts | 207° |